sensor_id;sensor_type;location;lat;lon;timestamp;temperature;humidity
67820;DHT22;54618;52.018;5.576;2023-12-04T00:02:15;1.30;91.20
67820;DHT22;54618;52.018;5.576;2023-12-04T00:04:40;1.40;91.40
67820;DHT22;54618;52.018;5.576;2023-12-04T00:07:06;1.30;91.80
67820;DHT22;54618;52.018;5.576;2023-12-04T00:09:32;1.40;91.70
67820;DHT22;54618;52.018;5.576;2023-12-04T00:11:57;1.40;91.50
67820;DHT22;54618;52.018;5.576;2023-12-04T00:14:23;1.40;91.10
67820;DHT22;54618;52.018;5.576;2023-12-04T00:16:49;1.40;91.00
67820;DHT22;54618;52.018;5.576;2023-12-04T00:19:14;1.40;91.00
67820;DHT22;54618;52.018;5.576;2023-12-04T00:21:40;1.40;90.90
67820;DHT22;54618;52.018;5.576;2023-12-04T00:24:06;1.40;91.10
67820;DHT22;54618;52.018;5.576;2023-12-04T00:26:31;1.40;91.00
67820;DHT22;54618;52.018;5.576;2023-12-04T00:28:57;1.40;91.10
67820;DHT22;54618;52.018;5.576;2023-12-04T00:31:22;1.40;91.50
67820;DHT22;54618;52.018;5.576;2023-12-04T00:33:48;1.40;91.30
67820;DHT22;54618;52.018;5.576;2023-12-04T00:36:14;1.40;91.60
67820;DHT22;54618;52.018;5.576;2023-12-04T00:38:40;1.40;91.50
67820;DHT22;54618;52.018;5.576;2023-12-04T00:41:05;1.40;91.30
67820;DHT22;54618;52.018;5.576;2023-12-04T00:43:31;1.40;91.70
67820;DHT22;54618;52.018;5.576;2023-12-04T00:45:57;1.40;91.80
67820;DHT22;54618;52.018;5.576;2023-12-04T00:48:22;1.40;92.10
67820;DHT22;54618;52.018;5.576;2023-12-04T00:50:48;1.40;91.90
67820;DHT22;54618;52.018;5.576;2023-12-04T00:53:14;1.30;91.50
67820;DHT22;54618;52.018;5.576;2023-12-04T00:55:39;1.30;91.80
67820;DHT22;54618;52.018;5.576;2023-12-04T00:58:05;1.40;92.00
67820;DHT22;54618;52.018;5.576;2023-12-04T01:00:31;1.30;91.80
67820;DHT22;54618;52.018;5.576;2023-12-04T01:02:56;1.30;91.70
67820;DHT22;54618;52.018;5.576;2023-12-04T01:05:22;1.40;91.90
67820;DHT22;54618;52.018;5.576;2023-12-04T01:07:47;1.30;91.90
67820;DHT22;54618;52.018;5.576;2023-12-04T01:10:16;1.40;91.80
67820;DHT22;54618;52.018;5.576;2023-12-04T01:12:44;1.40;91.70
67820;DHT22;54618;52.018;5.576;2023-12-04T01:15:10;1.40;91.60
67820;DHT22;54618;52.018;5.576;2023-12-04T01:17:36;1.30;91.30
67820;DHT22;54618;52.018;5.576;2023-12-04T01:20:01;1.40;91.50
67820;DHT22;54618;52.018;5.576;2023-12-04T01:22:27;1.40;91.60
67820;DHT22;54618;52.018;5.576;2023-12-04T01:24:53;1.30;91.10
67820;DHT22;54618;52.018;5.576;2023-12-04T01:27:18;1.40;91.20
67820;DHT22;54618;52.018;5.576;2023-12-04T01:29:44;1.40;91.60
67820;DHT22;54618;52.018;5.576;2023-12-04T01:32:10;1.40;91.70
67820;DHT22;54618;52.018;5.576;2023-12-04T01:34:35;1.40;91.80
67820;DHT22;54618;52.018;5.576;2023-12-04T01:37:01;1.40;91.70
67820;DHT22;54618;52.018;5.576;2023-12-04T01:39:29;1.30;91.50
67820;DHT22;54618;52.018;5.576;2023-12-04T01:41:55;1.40;91.30
67820;DHT22;54618;52.018;5.576;2023-12-04T01:44:20;1.40;91.40
67820;DHT22;54618;52.018;5.576;2023-12-04T01:46:47;1.40;91.70
67820;DHT22;54618;52.018;5.576;2023-12-04T01:49:16;1.40;91.60
67820;DHT22;54618;52.018;5.576;2023-12-04T01:51:46;1.30;91.20
67820;DHT22;54618;52.018;5.576;2023-12-04T01:54:17;1.40;91.40
67820;DHT22;54618;52.018;5.576;2023-12-04T01:56:47;1.40;91.40
67820;DHT22;54618;52.018;5.576;2023-12-04T01:59:16;1.40;91.30
67820;DHT22;54618;52.018;5.576;2023-12-04T02:01:45;1.30;91.30
67820;DHT22;54618;52.018;5.576;2023-12-04T02:04:11;1.40;91.20
67820;DHT22;54618;52.018;5.576;2023-12-04T02:06:37;1.40;91.10
67820;DHT22;54618;52.018;5.576;2023-12-04T02:09:03;1.40;91.50
67820;DHT22;54618;52.018;5.576;2023-12-04T02:11:31;1.30;91.30
67820;DHT22;54618;52.018;5.576;2023-12-04T02:13:57;1.40;91.10
67820;DHT22;54618;52.018;5.576;2023-12-04T02:16:26;1.30;91.20
67820;DHT22;54618;52.018;5.576;2023-12-04T02:18:55;1.30;91.10
67820;DHT22;54618;52.018;5.576;2023-12-04T02:21:21;1.40;90.90
67820;DHT22;54618;52.018;5.576;2023-12-04T02:23:51;1.40;91.30
67820;DHT22;54618;52.018;5.576;2023-12-04T02:26:31;1.40;91.60
67820;DHT22;54618;52.018;5.576;2023-12-04T02:29:01;1.40;91.50
67820;DHT22;54618;52.018;5.576;2023-12-04T02:31:29;1.30;91.60
67820;DHT22;54618;52.018;5.576;2023-12-04T02:33:57;1.40;91.70
67820;DHT22;54618;52.018;5.576;2023-12-04T02:36:27;1.40;91.50
67820;DHT22;54618;52.018;5.576;2023-12-04T02:38:55;1.40;91.60
67820;DHT22;54618;52.018;5.576;2023-12-04T02:41:29;1.40;91.80
67820;DHT22;54618;52.018;5.576;2023-12-04T02:43:57;1.30;91.60
67820;DHT22;54618;52.018;5.576;2023-12-04T02:46:26;1.30;91.60
67820;DHT22;54618;52.018;5.576;2023-12-04T02:48:51;1.30;91.60
67820;DHT22;54618;52.018;5.576;2023-12-04T02:51:19;1.40;91.40
67820;DHT22;54618;52.018;5.576;2023-12-04T02:53:45;1.30;91.60
67820;DHT22;54618;52.018;5.576;2023-12-04T02:56:11;1.30;91.50
67820;DHT22;54618;52.018;5.576;2023-12-04T02:58:37;1.40;91.70
67820;DHT22;54618;52.018;5.576;2023-12-04T03:01:03;1.40;91.50
67820;DHT22;54618;52.018;5.576;2023-12-04T03:03:28;1.40;91.50
67820;DHT22;54618;52.018;5.576;2023-12-04T03:05:55;1.30;91.30
67820;DHT22;54618;52.018;5.576;2023-12-04T03:08:20;1.40;91.30
67820;DHT22;54618;52.018;5.576;2023-12-04T03:10:46;1.40;91.30
67820;DHT22;54618;52.018;5.576;2023-12-04T03:13:17;1.40;91.40
67820;DHT22;54618;52.018;5.576;2023-12-04T03:15:46;1.30;91.20
67820;DHT22;54618;52.018;5.576;2023-12-04T03:18:17;1.40;91.30
67820;DHT22;54618;52.018;5.576;2023-12-04T03:20:48;1.40;91.40
67820;DHT22;54618;52.018;5.576;2023-12-04T03:23:17;1.40;91.40
67820;DHT22;54618;52.018;5.576;2023-12-04T03:25:46;1.40;92.00
67820;DHT22;54618;52.018;5.576;2023-12-04T03:28:11;1.40;91.70
67820;DHT22;54618;52.018;5.576;2023-12-04T03:30:41;1.30;91.50
67820;DHT22;54618;52.018;5.576;2023-12-04T03:33:11;1.30;91.30
67820;DHT22;54618;52.018;5.576;2023-12-04T03:35:36;1.40;91.20
67820;DHT22;54618;52.018;5.576;2023-12-04T03:38:02;1.40;91.30
67820;DHT22;54618;52.018;5.576;2023-12-04T03:40:33;1.40;91.10
67820;DHT22;54618;52.018;5.576;2023-12-04T03:43:01;1.40;91.30
67820;DHT22;54618;52.018;5.576;2023-12-04T03:45:27;1.30;91.00
67820;DHT22;54618;52.018;5.576;2023-12-04T03:47:53;1.40;90.90
67820;DHT22;54618;52.018;5.576;2023-12-04T03:50:19;1.30;91.10
67820;DHT22;54618;52.018;5.576;2023-12-04T03:52:44;1.40;90.90
67820;DHT22;54618;52.018;5.576;2023-12-04T03:55:10;1.40;91.00
67820;DHT22;54618;52.018;5.576;2023-12-04T03:57:38;1.30;91.00
67820;DHT22;54618;52.018;5.576;2023-12-04T04:00:06;1.40;91.10
67820;DHT22;54618;52.018;5.576;2023-12-04T04:02:34;1.40;91.00
67820;DHT22;54618;52.018;5.576;2023-12-04T04:05:00;1.30;91.00
67820;DHT22;54618;52.018;5.576;2023-12-04T04:07:26;1.40;91.00
67820;DHT22;54618;52.018;5.576;2023-12-04T04:09:52;1.30;91.20
67820;DHT22;54618;52.018;5.576;2023-12-04T04:12:18;1.30;91.00
67820;DHT22;54618;52.018;5.576;2023-12-04T04:14:46;1.30;91.00
67820;DHT22;54618;52.018;5.576;2023-12-04T04:17:15;1.30;91.20
67820;DHT22;54618;52.018;5.576;2023-12-04T04:19:41;1.30;91.30
67820;DHT22;54618;52.018;5.576;2023-12-04T04:22:07;1.30;91.10
67820;DHT22;54618;52.018;5.576;2023-12-04T04:24:33;1.30;90.90
67820;DHT22;54618;52.018;5.576;2023-12-04T04:27:01;1.30;91.00
67820;DHT22;54618;52.018;5.576;2023-12-04T04:29:27;1.30;91.10
67820;DHT22;54618;52.018;5.576;2023-12-04T04:31:53;1.30;91.00
67820;DHT22;54618;52.018;5.576;2023-12-04T04:34:21;1.30;91.20
67820;DHT22;54618;52.018;5.576;2023-12-04T04:36:47;1.30;91.10
67820;DHT22;54618;52.018;5.576;2023-12-04T04:39:16;1.30;91.10
67820;DHT22;54618;52.018;5.576;2023-12-04T04:41:49;1.30;91.10
67820;DHT22;54618;52.018;5.576;2023-12-04T04:44:15;1.30;91.10
67820;DHT22;54618;52.018;5.576;2023-12-04T04:46:40;1.30;91.20
67820;DHT22;54618;52.018;5.576;2023-12-04T04:49:06;1.30;91.10
67820;DHT22;54618;52.018;5.576;2023-12-04T04:51:33;1.20;91.20
67820;DHT22;54618;52.018;5.576;2023-12-04T04:54:00;1.20;91.10
67820;DHT22;54618;52.018;5.576;2023-12-04T04:56:25;1.30;91.10
67820;DHT22;54618;52.018;5.576;2023-12-04T04:58:51;1.20;91.00
67820;DHT22;54618;52.018;5.576;2023-12-04T05:01:16;1.20;91.00
67820;DHT22;54618;52.018;5.576;2023-12-04T05:03:45;1.20;91.10
67820;DHT22;54618;52.018;5.576;2023-12-04T05:06:11;1.30;91.10
67820;DHT22;54618;52.018;5.576;2023-12-04T05:08:49;1.20;90.90
67820;DHT22;54618;52.018;5.576;2023-12-04T05:11:18;1.20;91.00
67820;DHT22;54618;52.018;5.576;2023-12-04T05:13:47;1.20;91.10
67820;DHT22;54618;52.018;5.576;2023-12-04T05:16:16;1.20;91.00
67820;DHT22;54618;52.018;5.576;2023-12-04T05:18:45;1.20;90.90
67820;DHT22;54618;52.018;5.576;2023-12-04T05:21:10;1.20;91.00
67820;DHT22;54618;52.018;5.576;2023-12-04T05:23:39;1.20;90.90
67820;DHT22;54618;52.018;5.576;2023-12-04T05:26:06;1.20;90.80
67820;DHT22;54618;52.018;5.576;2023-12-04T05:28:32;1.20;90.90
67820;DHT22;54618;52.018;5.576;2023-12-04T05:30:57;1.20;90.90
67820;DHT22;54618;52.018;5.576;2023-12-04T05:33:23;1.20;90.90
67820;DHT22;54618;52.018;5.576;2023-12-04T05:35:49;1.20;91.20
67820;DHT22;54618;52.018;5.576;2023-12-04T05:38:17;1.20;91.00
67820;DHT22;54618;52.018;5.576;2023-12-04T05:40:46;1.20;90.90
67820;DHT22;54618;52.018;5.576;2023-12-04T05:43:11;1.20;91.00
67820;DHT22;54618;52.018;5.576;2023-12-04T05:45:38;1.20;90.90
67820;DHT22;54618;52.018;5.576;2023-12-04T05:48:05;1.20;91.00
67820;DHT22;54618;52.018;5.576;2023-12-04T05:50:30;1.20;90.80
67820;DHT22;54618;52.018;5.576;2023-12-04T05:52:56;1.20;90.90
67820;DHT22;54618;52.018;5.576;2023-12-04T05:55:22;1.20;91.20
67820;DHT22;54618;52.018;5.576;2023-12-04T05:57:47;1.20;90.80
67820;DHT22;54618;52.018;5.576;2023-12-04T06:00:16;1.20;90.80
67820;DHT22;54618;52.018;5.576;2023-12-04T06:02:46;1.20;91.00
67820;DHT22;54618;52.018;5.576;2023-12-04T06:05:11;1.20;90.90
67820;DHT22;54618;52.018;5.576;2023-12-04T06:07:37;1.20;90.80
67820;DHT22;54618;52.018;5.576;2023-12-04T06:10:04;1.20;90.60
67820;DHT22;54618;52.018;5.576;2023-12-04T06:12:30;1.20;90.60
67820;DHT22;54618;52.018;5.576;2023-12-04T06:14:56;1.20;90.50
67820;DHT22;54618;52.018;5.576;2023-12-04T06:17:21;1.20;90.50
67820;DHT22;54618;52.018;5.576;2023-12-04T06:19:47;1.20;90.60
67820;DHT22;54618;52.018;5.576;2023-12-04T06:22:15;1.20;90.50
67820;DHT22;54618;52.018;5.576;2023-12-04T06:24:47;1.30;90.50
67820;DHT22;54618;52.018;5.576;2023-12-04T06:27:18;1.20;90.50
67820;DHT22;54618;52.018;5.576;2023-12-04T06:29:46;1.20;90.40
67820;DHT22;54618;52.018;5.576;2023-12-04T06:32:17;1.20;90.60
67820;DHT22;54618;52.018;5.576;2023-12-04T06:34:46;1.20;90.30
67820;DHT22;54618;52.018;5.576;2023-12-04T06:37:14;1.30;90.40
67820;DHT22;54618;52.018;5.576;2023-12-04T06:39:40;1.30;90.40
67820;DHT22;54618;52.018;5.576;2023-12-04T06:42:11;1.30;90.40
67820;DHT22;54618;52.018;5.576;2023-12-04T06:44:37;1.30;90.40
67820;DHT22;54618;52.018;5.576;2023-12-04T06:47:03;1.30;90.30
67820;DHT22;54618;52.018;5.576;2023-12-04T06:49:31;1.20;90.30
67820;DHT22;54618;52.018;5.576;2023-12-04T06:51:58;1.20;90.30
67820;DHT22;54618;52.018;5.576;2023-12-04T06:54:23;1.20;90.30
67820;DHT22;54618;52.018;5.576;2023-12-04T06:56:49;1.30;90.30
67820;DHT22;54618;52.018;5.576;2023-12-04T06:59:15;1.30;90.30
67820;DHT22;54618;52.018;5.576;2023-12-04T07:01:40;1.20;90.10
67820;DHT22;54618;52.018;5.576;2023-12-04T07:04:06;1.30;90.10
67820;DHT22;54618;52.018;5.576;2023-12-04T07:06:55;1.30;90.10
67820;DHT22;54618;52.018;5.576;2023-12-04T07:09:21;1.30;90.10
67820;DHT22;54618;52.018;5.576;2023-12-04T07:11:47;1.30;90.00
67820;DHT22;54618;52.018;5.576;2023-12-04T07:14:15;1.20;90.00
67820;DHT22;54618;52.018;5.576;2023-12-04T07:16:42;1.30;90.00
67820;DHT22;54618;52.018;5.576;2023-12-04T07:19:10;1.30;90.00
67820;DHT22;54618;52.018;5.576;2023-12-04T07:21:37;1.30;89.80
67820;DHT22;54618;52.018;5.576;2023-12-04T07:24:03;1.30;89.70
67820;DHT22;54618;52.018;5.576;2023-12-04T07:26:32;1.30;89.50
67820;DHT22;54618;52.018;5.576;2023-12-04T07:28:57;1.30;89.60
67820;DHT22;54618;52.018;5.576;2023-12-04T07:31:23;1.30;89.10
67820;DHT22;54618;52.018;5.576;2023-12-04T07:33:48;1.30;89.10
67820;DHT22;54618;52.018;5.576;2023-12-04T07:36:17;1.30;89.10
67820;DHT22;54618;52.018;5.576;2023-12-04T07:38:43;1.30;88.90
67820;DHT22;54618;52.018;5.576;2023-12-04T07:41:10;1.30;88.90
67820;DHT22;54618;52.018;5.576;2023-12-04T07:43:36;1.30;88.80
67820;DHT22;54618;52.018;5.576;2023-12-04T07:46:01;1.30;88.90
67820;DHT22;54618;52.018;5.576;2023-12-04T07:48:31;1.30;88.80
67820;DHT22;54618;52.018;5.576;2023-12-04T07:50:57;1.30;88.90
67820;DHT22;54618;52.018;5.576;2023-12-04T07:53:22;1.30;88.90
67820;DHT22;54618;52.018;5.576;2023-12-04T07:55:49;1.30;88.80
67820;DHT22;54618;52.018;5.576;2023-12-04T07:58:19;1.30;88.80
67820;DHT22;54618;52.018;5.576;2023-12-04T08:00:45;1.40;88.90
67820;DHT22;54618;52.018;5.576;2023-12-04T08:03:11;1.30;88.70
67820;DHT22;54618;52.018;5.576;2023-12-04T08:05:36;1.30;88.60
67820;DHT22;54618;52.018;5.576;2023-12-04T08:08:03;1.40;88.70
67820;DHT22;54618;52.018;5.576;2023-12-04T08:10:28;1.40;88.80
67820;DHT22;54618;52.018;5.576;2023-12-04T08:12:54;1.40;88.70
67820;DHT22;54618;52.018;5.576;2023-12-04T08:15:20;1.40;88.60
67820;DHT22;54618;52.018;5.576;2023-12-04T08:17:45;1.40;88.40
67820;DHT22;54618;52.018;5.576;2023-12-04T08:20:11;1.40;88.40
67820;DHT22;54618;52.018;5.576;2023-12-04T08:22:42;1.40;88.20
67820;DHT22;54618;52.018;5.576;2023-12-04T08:25:10;1.40;88.40
67820;DHT22;54618;52.018;5.576;2023-12-04T08:27:36;1.40;88.20
67820;DHT22;54618;52.018;5.576;2023-12-04T08:30:04;1.40;88.20
67820;DHT22;54618;52.018;5.576;2023-12-04T08:32:33;1.40;87.80
67820;DHT22;54618;52.018;5.576;2023-12-04T08:34:59;1.50;87.70
67820;DHT22;54618;52.018;5.576;2023-12-04T08:37:29;1.40;88.00
67820;DHT22;54618;52.018;5.576;2023-12-04T08:39:57;1.50;87.90
67820;DHT22;54618;52.018;5.576;2023-12-04T08:42:23;1.50;87.70
67820;DHT22;54618;52.018;5.576;2023-12-04T08:44:49;1.50;87.70
67820;DHT22;54618;52.018;5.576;2023-12-04T08:47:17;1.50;87.70
67820;DHT22;54618;52.018;5.576;2023-12-04T08:49:46;1.50;88.30
67820;DHT22;54618;52.018;5.576;2023-12-04T08:52:12;1.60;87.60
67820;DHT22;54618;52.018;5.576;2023-12-04T08:54:41;1.60;87.40
67820;DHT22;54618;52.018;5.576;2023-12-04T08:57:07;1.60;87.40
67820;DHT22;54618;52.018;5.576;2023-12-04T08:59:34;1.60;87.20
67820;DHT22;54618;52.018;5.576;2023-12-04T09:01:59;1.60;87.20
67820;DHT22;54618;52.018;5.576;2023-12-04T09:04:29;1.70;87.10
67820;DHT22;54618;52.018;5.576;2023-12-04T09:06:55;1.70;86.80
67820;DHT22;54618;52.018;5.576;2023-12-04T09:09:21;1.70;86.80
67820;DHT22;54618;52.018;5.576;2023-12-04T09:11:46;1.70;86.60
67820;DHT22;54618;52.018;5.576;2023-12-04T09:14:13;1.80;86.50
67820;DHT22;54618;52.018;5.576;2023-12-04T09:16:46;1.80;86.40
67820;DHT22;54618;52.018;5.576;2023-12-04T09:19:11;1.80;86.30
67820;DHT22;54618;52.018;5.576;2023-12-04T09:21:39;1.90;86.50
67820;DHT22;54618;52.018;5.576;2023-12-04T09:24:05;1.90;85.90
67820;DHT22;54618;52.018;5.576;2023-12-04T09:26:30;2.00;85.90
67820;DHT22;54618;52.018;5.576;2023-12-04T09:28:56;2.00;86.10
67820;DHT22;54618;52.018;5.576;2023-12-04T09:31:22;2.00;85.80
67820;DHT22;54618;52.018;5.576;2023-12-04T09:33:48;2.10;85.90
67820;DHT22;54618;52.018;5.576;2023-12-04T09:36:17;2.10;85.70
67820;DHT22;54618;52.018;5.576;2023-12-04T09:38:43;2.10;85.50
67820;DHT22;54618;52.018;5.576;2023-12-04T09:41:12;2.10;85.50
67820;DHT22;54618;52.018;5.576;2023-12-04T09:43:38;2.20;85.60
67820;DHT22;54618;52.018;5.576;2023-12-04T09:46:04;2.30;85.40
67820;DHT22;54618;52.018;5.576;2023-12-04T09:48:30;2.30;85.30
67820;DHT22;54618;52.018;5.576;2023-12-04T09:50:57;2.30;84.90
67820;DHT22;54618;52.018;5.576;2023-12-04T09:53:24;2.30;84.80
67820;DHT22;54618;52.018;5.576;2023-12-04T09:55:56;2.30;84.20
67820;DHT22;54618;52.018;5.576;2023-12-04T09:58:26;2.30;84.50
67820;DHT22;54618;52.018;5.576;2023-12-04T10:00:54;2.40;84.80
67820;DHT22;54618;52.018;5.576;2023-12-04T10:03:20;2.40;82.70
67820;DHT22;54618;52.018;5.576;2023-12-04T10:05:46;2.40;84.60
67820;DHT22;54618;52.018;5.576;2023-12-04T10:08:12;2.40;84.60
67820;DHT22;54618;52.018;5.576;2023-12-04T10:10:38;2.40;84.40
67820;DHT22;54618;52.018;5.576;2023-12-04T10:13:03;2.50;84.40
67820;DHT22;54618;52.018;5.576;2023-12-04T10:15:29;2.50;84.30
67820;DHT22;54618;52.018;5.576;2023-12-04T10:17:55;2.50;84.40
67820;DHT22;54618;52.018;5.576;2023-12-04T10:20:21;2.50;84.10
67820;DHT22;54618;52.018;5.576;2023-12-04T10:22:58;2.60;83.90
67820;DHT22;54618;52.018;5.576;2023-12-04T10:25:34;2.60;84.00
67820;DHT22;54618;52.018;5.576;2023-12-04T10:28:10;2.60;83.70
67820;DHT22;54618;52.018;5.576;2023-12-04T10:30:36;2.70;84.10
67820;DHT22;54618;52.018;5.576;2023-12-04T10:33:03;2.70;83.90
67820;DHT22;54618;52.018;5.576;2023-12-04T10:35:32;2.70;83.80
67820;DHT22;54618;52.018;5.576;2023-12-04T10:37:59;2.80;83.30
67820;DHT22;54618;52.018;5.576;2023-12-04T10:40:32;2.70;83.20
67820;DHT22;54618;52.018;5.576;2023-12-04T10:43:24;2.80;82.70
67820;DHT22;54618;52.018;5.576;2023-12-04T10:45:50;2.80;81.80
67820;DHT22;54618;52.018;5.576;2023-12-04T10:48:18;2.80;82.40
67820;DHT22;54618;52.018;5.576;2023-12-04T10:50:47;2.80;83.30
67820;DHT22;54618;52.018;5.576;2023-12-04T10:53:16;2.80;82.60
67820;DHT22;54618;52.018;5.576;2023-12-04T10:55:43;2.80;82.20
67820;DHT22;54618;52.018;5.576;2023-12-04T10:58:13;2.80;82.40
67820;DHT22;54618;52.018;5.576;2023-12-04T11:00:46;2.80;82.30
67820;DHT22;54618;52.018;5.576;2023-12-04T11:03:34;2.90;83.10
67820;DHT22;54618;52.018;5.576;2023-12-04T11:06:02;2.90;82.40
67820;DHT22;54618;52.018;5.576;2023-12-04T11:08:33;2.90;82.50
67820;DHT22;54618;52.018;5.576;2023-12-04T11:11:05;2.90;83.10
67820;DHT22;54618;52.018;5.576;2023-12-04T11:13:37;2.90;81.60
67820;DHT22;54618;52.018;5.576;2023-12-04T11:16:10;3.00;82.10
67820;DHT22;54618;52.018;5.576;2023-12-04T11:18:43;2.90;81.80
67820;DHT22;54618;52.018;5.576;2023-12-04T11:21:13;2.90;81.90
67820;DHT22;54618;52.018;5.576;2023-12-04T11:23:46;2.90;81.80
67820;DHT22;54618;52.018;5.576;2023-12-04T11:26:12;2.90;81.40
67820;DHT22;54618;52.018;5.576;2023-12-04T11:28:39;2.90;81.80
67820;DHT22;54618;52.018;5.576;2023-12-04T11:31:05;2.90;82.30
67820;DHT22;54618;52.018;5.576;2023-12-04T11:33:42;2.90;81.80
67820;DHT22;54618;52.018;5.576;2023-12-04T11:36:33;3.00;82.30
67820;DHT22;54618;52.018;5.576;2023-12-04T11:39:02;2.90;81.40
67820;DHT22;54618;52.018;5.576;2023-12-04T11:41:29;2.90;82.30
67820;DHT22;54618;52.018;5.576;2023-12-04T11:43:58;2.90;82.00
67820;DHT22;54618;52.018;5.576;2023-12-04T11:46:25;2.80;81.90
67820;DHT22;54618;52.018;5.576;2023-12-04T11:49:25;2.90;82.30
67820;DHT22;54618;52.018;5.576;2023-12-04T11:51:47;2.90;82.60
67820;DHT22;54618;52.018;5.576;2023-12-04T11:54:24;2.90;81.80
67820;DHT22;54618;52.018;5.576;2023-12-04T11:57:22;2.80;82.30
67820;DHT22;54618;52.018;5.576;2023-12-04T11:59:47;2.80;82.40
67820;DHT22;54618;52.018;5.576;2023-12-04T12:02:25;2.90;82.50
67820;DHT22;54618;52.018;5.576;2023-12-04T12:04:56;2.90;82.20
67820;DHT22;54618;52.018;5.576;2023-12-04T12:07:27;2.80;82.30
67820;DHT22;54618;52.018;5.576;2023-12-04T12:09:53;2.80;82.30
67820;DHT22;54618;52.018;5.576;2023-12-04T12:12:45;2.80;81.90
67820;DHT22;54618;52.018;5.576;2023-12-04T12:15:27;2.80;81.90
67820;DHT22;54618;52.018;5.576;2023-12-04T12:18:02;2.80;82.50
67820;DHT22;54618;52.018;5.576;2023-12-04T12:20:37;2.80;81.00
67820;DHT22;54618;52.018;5.576;2023-12-04T12:23:09;2.80;82.10
67820;DHT22;54618;52.018;5.576;2023-12-04T12:25:35;2.80;82.90
67820;DHT22;54618;52.018;5.576;2023-12-04T12:28:09;2.80;82.60
67820;DHT22;54618;52.018;5.576;2023-12-04T12:30:38;2.80;82.60
67820;DHT22;54618;52.018;5.576;2023-12-04T12:33:07;2.80;82.30
67820;DHT22;54618;52.018;5.576;2023-12-04T12:35:39;2.80;80.00
67820;DHT22;54618;52.018;5.576;2023-12-04T12:38:05;2.80;81.90
67820;DHT22;54618;52.018;5.576;2023-12-04T12:40:30;2.80;79.20
67820;DHT22;54618;52.018;5.576;2023-12-04T12:43:07;2.80;81.80
67820;DHT22;54618;52.018;5.576;2023-12-04T12:45:46;2.80;82.00
67820;DHT22;54618;52.018;5.576;2023-12-04T12:48:18;2.90;82.40
67820;DHT22;54618;52.018;5.576;2023-12-04T12:50:48;2.90;82.10
67820;DHT22;54618;52.018;5.576;2023-12-04T12:53:20;2.90;82.00
67820;DHT22;54618;52.018;5.576;2023-12-04T12:55:48;2.90;82.00
67820;DHT22;54618;52.018;5.576;2023-12-04T12:58:18;2.90;82.00
67820;DHT22;54618;52.018;5.576;2023-12-04T13:00:47;3.00;82.40
67820;DHT22;54618;52.018;5.576;2023-12-04T13:03:17;3.00;81.80
67820;DHT22;54618;52.018;5.576;2023-12-04T13:05:45;3.00;81.70
67820;DHT22;54618;52.018;5.576;2023-12-04T13:08:12;3.00;81.00
67820;DHT22;54618;52.018;5.576;2023-12-04T13:10:38;3.00;81.40
67820;DHT22;54618;52.018;5.576;2023-12-04T13:13:04;3.00;82.00
67820;DHT22;54618;52.018;5.576;2023-12-04T13:15:34;3.00;81.90
67820;DHT22;54618;52.018;5.576;2023-12-04T13:18:00;3.00;81.90
67820;DHT22;54618;52.018;5.576;2023-12-04T13:20:27;3.00;81.90
67820;DHT22;54618;52.018;5.576;2023-12-04T13:22:53;3.00;82.50
67820;DHT22;54618;52.018;5.576;2023-12-04T13:25:19;3.00;82.60
67820;DHT22;54618;52.018;5.576;2023-12-04T13:27:48;3.00;82.60
67820;DHT22;54618;52.018;5.576;2023-12-04T13:30:17;3.00;82.60
67820;DHT22;54618;52.018;5.576;2023-12-04T13:32:45;2.90;82.50
67820;DHT22;54618;52.018;5.576;2023-12-04T13:35:19;2.90;82.70
67820;DHT22;54618;52.018;5.576;2023-12-04T13:37:48;2.90;83.00
67820;DHT22;54618;52.018;5.576;2023-12-04T13:40:22;2.90;82.90
67820;DHT22;54618;52.018;5.576;2023-12-04T13:42:52;2.90;82.60
67820;DHT22;54618;52.018;5.576;2023-12-04T13:45:36;2.90;83.00
67820;DHT22;54618;52.018;5.576;2023-12-04T13:48:03;2.90;82.70
67820;DHT22;54618;52.018;5.576;2023-12-04T13:50:28;2.90;83.30
67820;DHT22;54618;52.018;5.576;2023-12-04T13:52:54;2.90;83.20
67820;DHT22;54618;52.018;5.576;2023-12-04T13:55:24;2.90;82.80
67820;DHT22;54618;52.018;5.576;2023-12-04T13:58:08;2.90;82.00
67820;DHT22;54618;52.018;5.576;2023-12-04T14:00:56;2.90;82.80
67820;DHT22;54618;52.018;5.576;2023-12-04T14:03:22;2.90;82.60
67820;DHT22;54618;52.018;5.576;2023-12-04T14:05:48;2.80;82.20
67820;DHT22;54618;52.018;5.576;2023-12-04T14:08:13;2.80;82.70
67820;DHT22;54618;52.018;5.576;2023-12-04T14:10:41;2.80;82.80
67820;DHT22;54618;52.018;5.576;2023-12-04T14:13:06;2.80;82.80
67820;DHT22;54618;52.018;5.576;2023-12-04T14:15:32;2.70;83.30
67820;DHT22;54618;52.018;5.576;2023-12-04T14:17:58;2.80;83.40
67820;DHT22;54618;52.018;5.576;2023-12-04T14:20:23;2.70;83.00
67820;DHT22;54618;52.018;5.576;2023-12-04T14:22:51;2.70;83.50
67820;DHT22;54618;52.018;5.576;2023-12-04T14:25:17;2.70;83.50
67820;DHT22;54618;52.018;5.576;2023-12-04T14:27:42;2.70;83.60
67820;DHT22;54618;52.018;5.576;2023-12-04T14:30:11;2.70;83.90
67820;DHT22;54618;52.018;5.576;2023-12-04T14:32:37;2.80;84.10
67820;DHT22;54618;52.018;5.576;2023-12-04T14:35:04;2.70;84.50
67820;DHT22;54618;52.018;5.576;2023-12-04T14:37:30;2.80;84.40
67820;DHT22;54618;52.018;5.576;2023-12-04T14:39:55;2.80;84.50
67820;DHT22;54618;52.018;5.576;2023-12-04T14:42:21;2.70;84.80
67820;DHT22;54618;52.018;5.576;2023-12-04T14:44:47;2.70;85.00
67820;DHT22;54618;52.018;5.576;2023-12-04T14:47:12;2.80;85.10
67820;DHT22;54618;52.018;5.576;2023-12-04T14:49:38;2.80;85.20
67820;DHT22;54618;52.018;5.576;2023-12-04T14:52:04;2.80;85.50
67820;DHT22;54618;52.018;5.576;2023-12-04T14:54:32;2.80;85.60
67820;DHT22;54618;52.018;5.576;2023-12-04T14:57:20;2.70;85.80
67820;DHT22;54618;52.018;5.576;2023-12-04T15:00:05;2.80;86.10
67820;DHT22;54618;52.018;5.576;2023-12-04T15:03:03;2.80;86.20
67820;DHT22;54618;52.018;5.576;2023-12-04T15:05:31;2.70;86.20
67820;DHT22;54618;52.018;5.576;2023-12-04T15:07:58;2.70;86.20
67820;DHT22;54618;52.018;5.576;2023-12-04T15:10:24;2.70;86.40
67820;DHT22;54618;52.018;5.576;2023-12-04T15:13:08;2.70;86.40
67820;DHT22;54618;52.018;5.576;2023-12-04T15:15:53;2.70;86.50
67820;DHT22;54618;52.018;5.576;2023-12-04T15:18:37;2.70;86.70
67820;DHT22;54618;52.018;5.576;2023-12-04T15:21:09;2.60;87.00
67820;DHT22;54618;52.018;5.576;2023-12-04T15:23:34;2.70;87.00
67820;DHT22;54618;52.018;5.576;2023-12-04T15:26:01;2.70;87.40
67820;DHT22;54618;52.018;5.576;2023-12-04T15:28:27;2.60;87.40
67820;DHT22;54618;52.018;5.576;2023-12-04T15:30:53;2.60;87.60
67820;DHT22;54618;52.018;5.576;2023-12-04T15:33:21;2.60;87.80
67820;DHT22;54618;52.018;5.576;2023-12-04T15:35:49;2.60;88.10
67820;DHT22;54618;52.018;5.576;2023-12-04T15:38:18;2.60;88.90
67820;DHT22;54618;52.018;5.576;2023-12-04T15:40:48;2.50;88.70
67820;DHT22;54618;52.018;5.576;2023-12-04T15:43:14;2.50;89.00
67820;DHT22;54618;52.018;5.576;2023-12-04T15:45:43;2.50;89.80
67820;DHT22;54618;52.018;5.576;2023-12-04T15:48:09;2.50;89.40
67820;DHT22;54618;52.018;5.576;2023-12-04T15:50:36;2.50;89.60
67820;DHT22;54618;52.018;5.576;2023-12-04T15:53:03;2.50;89.80